createdAt,value
2017-08-21T00:01:25.722Z,18.36
2017-08-21T00:03:49.599Z,18.36
2017-08-21T00:06:13.473Z,18.26
2017-08-21T00:08:37.353Z,18.23
2017-08-21T00:11:01.190Z,17.9
2017-08-21T00:12:37.482Z,18.06
2017-08-21T00:14:52.962Z,18.06
2017-08-21T00:17:08.440Z,18.03
2017-08-21T00:19:10.391Z,18.24
2017-08-21T00:21:34.287Z,18.27
2017-08-21T00:23:49.766Z,18.21
2017-08-21T00:26:13.648Z,18.15
2017-08-21T00:28:37.528Z,18.18
2017-08-21T00:31:01.402Z,18.05
2017-08-21T00:33:25.282Z,18.19
2017-08-21T00:35:49.048Z,18.03
2017-08-21T00:38:12.918Z,18.34
2017-08-21T00:40:36.810Z,18.39
2017-08-21T00:42:52.183Z,18.33
2017-08-21T00:45:16.065Z,18.34
2017-08-21T00:47:39.868Z,18.13
2017-08-21T00:50:03.714Z,18.37
2017-08-21T00:52:27.594Z,18.39
2017-08-21T00:54:51.387Z,18.37
2017-08-21T00:57:15.240Z,18.31
2017-08-21T00:59:39.025Z,18.46
2017-08-21T01:02:02.896Z,18.24
2017-08-21T01:04:26.772Z,18.31
2017-08-21T01:06:50.651Z,18.41
2017-08-21T01:09:14.522Z,18.37
2017-08-21T01:10:50.825Z,18.37
2017-08-21T01:13:14.768Z,18.31
2017-08-21T01:15:38.647Z,18.18
2017-08-21T01:17:40.535Z,18.11
2017-08-21T01:19:55.985Z,17.87
2017-08-21T01:22:19.854Z,17.93
2017-08-21T01:24:43.738Z,17.88
2017-08-21T01:27:07.615Z,17.9
2017-08-21T01:29:31.488Z,18.11
2017-08-21T01:31:42.673Z,18.41
2017-08-21T01:34:06.644Z,18.37
2017-08-21T01:36:30.532Z,18.39
2017-08-21T01:38:54.423Z,18.28
2017-08-21T01:41:18.280Z,18
2017-08-21T01:43:42.164Z,18.31
2017-08-21T01:46:06.036Z,18.13
2017-08-21T01:48:29.915Z,17.72
2017-08-21T01:50:53.742Z,17.66
2017-08-21T01:53:17.567Z,17.53
2017-08-21T01:55:41.451Z,17.82
2017-08-21T01:58:05.332Z,17.91
2017-08-21T02:00:20.705Z,17.68
2017-08-21T02:02:44.508Z,17.42
2017-08-21T02:05:08.350Z,17.76
2017-08-21T02:07:32.132Z,17.57
2017-08-21T02:09:39.112Z,17.46
2017-08-21T02:11:54.585Z,17.59
2017-08-21T02:14:18.468Z,17.78
2017-08-21T02:16:33.943Z,18.11
2017-08-21T02:18:57.824Z,17.88
2017-08-21T02:21:21.692Z,18.09
2017-08-21T02:23:37.092Z,18.15
2017-08-21T02:26:00.954Z,18.34
2017-08-21T02:28:24.837Z,18.16
2017-08-21T02:30:35.187Z,18.03
2017-08-21T02:32:59.068Z,18.06
2017-08-21T02:35:22.948Z,18.34
2017-08-21T02:37:46.837Z,18.28
2017-08-21T02:40:10.698Z,18.26
2017-08-21T02:42:34.576Z,18.36
2017-08-21T02:44:58.454Z,18.43
2017-08-21T02:47:13.925Z,18.34
2017-08-21T02:49:29.413Z,18.3
2017-08-21T02:51:53.293Z,18.39
2017-08-21T02:54:17.167Z,18.41
2017-08-21T02:56:32.646Z,18.45
2017-08-21T02:58:48.132Z,18.08
2017-08-21T03:01:12.007Z,18.27
2017-08-21T03:03:35.882Z,18.21
2017-08-21T03:05:59.760Z,17.9
2017-08-21T03:08:23.643Z,17.9
2017-08-21T03:10:47.525Z,17.98
2017-08-21T03:13:11.340Z,18.05
2017-08-21T03:15:35.171Z,18.09
2017-08-21T03:17:45.521Z,17.93
2017-08-21T03:20:09.420Z,18.09
2017-08-21T03:22:33.195Z,17.93
2017-08-21T03:24:57.070Z,18
2017-08-21T03:27:20.823Z,18.11
2017-08-21T03:29:44.704Z,18.05
2017-08-21T03:32:08.483Z,18.02
2017-08-21T03:34:23.962Z,18.05
2017-08-21T03:36:39.341Z,18.02
2017-08-21T03:39:03.120Z,17.88
2017-08-21T03:41:26.898Z,17.91
2017-08-21T03:43:50.659Z,17.88
2017-08-21T03:46:14.541Z,17.73
2017-08-21T03:48:38.324Z,17.39
2017-08-21T03:51:02.187Z,17.56
2017-08-21T03:53:17.553Z,17.37
2017-08-21T03:54:53.968Z,17.78
2017-08-21T03:57:17.809Z,17.59
2017-08-21T03:59:41.690Z,17.56
2017-08-21T04:02:05.452Z,17.44
2017-08-21T04:04:29.237Z,17.39
2017-08-21T04:06:44.613Z,17.34
2017-08-21T04:09:08.391Z,17.44
2017-08-21T04:10:44.678Z,17.56
2017-08-21T04:13:08.452Z,17.71
2017-08-21T04:14:44.711Z,17.46
2017-08-21T04:17:08.653Z,17.49
2017-08-21T04:19:32.436Z,17.34
2017-08-21T04:21:47.817Z,17.41
2017-08-21T04:24:11.594Z,17.6
2017-08-21T04:26:35.466Z,17.66
2017-08-21T04:28:50.844Z,17.73
2017-08-21T04:31:14.620Z,17.66
2017-08-21T04:33:38.499Z,17.73
2017-08-21T04:36:02.373Z,17.9
2017-08-21T04:38:26.249Z,18.08
2017-08-21T04:40:50.132Z,18.12
2017-08-21T04:43:14.005Z,18.15
2017-08-21T04:45:37.882Z,17.93
2017-08-21T04:48:01.761Z,17.91
2017-08-21T04:50:25.637Z,18.19
2017-08-21T04:52:41.001Z,17.95
2017-08-21T04:54:56.391Z,17.71
2017-08-21T04:57:20.273Z,17.97
2017-08-21T04:59:44.148Z,18.05
2017-08-21T05:02:16.618Z,18.05
2017-08-21T05:04:40.378Z,18.05
2017-08-21T05:07:06.633Z,18.19
2017-08-21T05:09:30.526Z,18.15
2017-08-21T05:11:54.392Z,18.49
2017-08-21T05:14:26.148Z,18.42
2017-08-21T05:16:49.930Z,18.58
2017-08-21T05:19:14.827Z,18.48
2017-08-21T05:23:14.293Z,18.45
2017-08-21T05:25:46.744Z,18.51
2017-08-21T05:28:10.562Z,18.85
2017-08-21T05:30:34.368Z,18.55
2017-08-21T05:34:34.367Z,18.67
2017-08-21T05:38:33.913Z,18.7
2017-08-21T05:40:49.363Z,18.96
2017-08-21T05:43:13.299Z,19.23
2017-08-21T05:45:37.169Z,19.16
2017-08-21T05:49:36.717Z,19.29
2017-08-21T05:52:00.674Z,19.11
2017-08-21T05:55:52.277Z,19.05
2017-08-21T05:58:16.171Z,19.42
2017-08-21T06:00:54.705Z,19.37
2017-08-21T06:03:18.592Z,19.17
2017-08-21T06:05:42.472Z,19.22
2017-08-21T06:07:52.835Z,19.17
2017-08-21T06:09:29.105Z,19.2
2017-08-21T06:11:53.162Z,19.32
2017-08-21T06:14:17.140Z,19.48
2017-08-21T06:16:41.117Z,19.75
2017-08-21T06:19:06.125Z,19.84
2017-08-21T06:21:30.103Z,19.9
2017-08-21T06:23:45.684Z,20.03
2017-08-21T06:26:09.609Z,19.89
2017-08-21T06:28:19.518Z,20.07
2017-08-21T06:30:36.121Z,20.18
2017-08-21T06:32:52.726Z,20.58
2017-08-21T06:35:18.749Z,19.92
2017-08-21T06:37:20.612Z,20.7
2017-08-21T06:39:21.961Z,20.71
2017-08-21T06:41:46.036Z,21.08
2017-08-21T06:44:10.123Z,21.26
2017-08-21T06:46:34.214Z,21.4
2017-08-21T06:48:58.291Z,21.77
2017-08-21T06:51:22.474Z,22.81
2017-08-21T06:53:46.649Z,23.95
2017-08-21T06:56:10.846Z,24.63
2017-08-21T06:58:35.129Z,24.43
2017-08-21T07:00:51.636Z,24.59
2017-08-21T07:03:15.924Z,24.04
2017-08-21T07:05:26.399Z,24.1
2017-08-21T07:07:50.770Z,23.74
2017-08-21T07:10:15.059Z,23.96
2017-08-21T07:12:30.946Z,22.65
2017-08-21T07:14:55.336Z,23.42
2017-08-21T07:16:56.792Z,22.91
2017-08-21T07:19:21.173Z,23.01
2017-08-21T07:21:45.565Z,24.44
2017-08-21T07:23:55.586Z,24.46
2017-08-21T07:26:03.111Z,25.14
2017-08-21T07:28:27.499Z,24.69
2017-08-21T07:30:03.882Z,25.51
2017-08-21T07:32:19.958Z,25.06
2017-08-21T07:34:44.441Z,25.33
2017-08-21T07:37:08.942Z,25.48
2017-08-21T07:39:33.433Z,26.83
2017-08-21T07:41:49.629Z,26.85
2017-08-21T07:44:14.321Z,29.27
2017-08-21T07:46:30.621Z,27.38
2017-08-21T07:48:55.403Z,29.12
2017-08-21T07:51:11.826Z,30.73
2017-08-21T07:53:36.819Z,31.59
2017-08-21T07:56:02.035Z,29.55
2017-08-21T07:58:28.086Z,28.89
2017-08-21T08:00:53.167Z,28.55
2017-08-21T08:03:18.209Z,29.18
2017-08-21T08:05:11.772Z,28.19
2017-08-21T08:07:28.345Z,27.34
2017-08-21T08:09:53.250Z,27.82
2017-08-21T08:12:18.145Z,27.44
2017-08-21T08:14:43.046Z,26.93
2017-08-21T08:17:07.956Z,27.97
2017-08-21T08:19:32.862Z,27.57
2017-08-21T08:21:34.925Z,27.78
2017-08-21T08:23:59.815Z,28.86
2017-08-21T08:26:24.721Z,27.93
2017-08-21T08:28:35.968Z,27.5
2017-08-21T08:30:38.355Z,27.04
2017-08-21T08:32:55.016Z,27.48
2017-08-21T08:35:19.795Z,27.29
2017-08-21T08:37:44.681Z,27.66
2017-08-21T08:40:12.532Z,28.77
2017-08-21T08:42:38.996Z,29
2017-08-21T08:45:06.459Z,27.47
2017-08-21T08:47:34.235Z,29.22
2017-08-21T08:49:38.068Z,29.37
2017-08-21T08:51:14.424Z,30.31
2017-08-21T08:53:41.304Z,31.3
2017-08-21T08:56:07.411Z,29.87
2017-08-21T08:58:35.209Z,29.73
2017-08-21T09:02:39.295Z,31.45
2017-08-21T09:05:06.119Z,31.63
2017-08-21T09:07:17.271Z,32.83
2017-08-21T09:09:42.597Z,32.75
2017-08-21T09:12:07.688Z,30.81
2017-08-21T09:14:24.517Z,30.92
2017-08-21T09:16:49.717Z,32.31
2017-08-21T09:19:14.905Z,34.13
2017-08-21T09:21:25.683Z,33.04
2017-08-21T09:23:51.011Z,34.58
2017-08-21T09:26:16.423Z,33.45
2017-08-21T09:28:26.752Z,35.35
2017-08-21T09:30:52.193Z,33.01
2017-08-21T09:33:17.556Z,32.44
2017-08-21T09:35:19.827Z,33.03
2017-08-21T09:37:45.204Z,34.04
2017-08-21T09:40:10.441Z,35.3
2017-08-21T09:42:35.815Z,34.43
2017-08-21T09:44:53.670Z,35.26
2017-08-21T09:47:19.074Z,37.07
2017-08-21T09:49:44.386Z,36.48
2017-08-21T09:52:01.292Z,35.6
2017-08-21T09:54:19.262Z,36.17
2017-08-21T09:56:44.729Z,35.81
2017-08-21T09:59:10.156Z,36.99
2017-08-21T10:01:35.672Z,37.09
2017-08-21T10:04:01.265Z,36.91
2017-08-21T10:06:26.544Z,37.71
2017-08-21T10:08:51.993Z,36.51
2017-08-21T10:11:17.421Z,35.93
2017-08-21T10:13:42.813Z,33.51
2017-08-21T10:16:08.462Z,32.81
2017-08-21T10:18:33.869Z,34.76
2017-08-21T10:20:59.214Z,33.09
2017-08-21T10:23:24.514Z,32.75
2017-08-21T10:25:50.048Z,31.25
2017-08-21T10:28:15.506Z,30.78
2017-08-21T10:30:40.863Z,29.92
2017-08-21T10:33:06.539Z,31.04
2017-08-21T10:35:32.783Z,31.82
2017-08-21T10:37:58.097Z,32.19
2017-08-21T10:40:23.488Z,30.03
2017-08-21T10:42:48.595Z,30.63
2017-08-21T10:45:13.757Z,30.83
2017-08-21T10:47:39.529Z,31
2017-08-21T10:50:04.992Z,29.74
2017-08-21T10:52:30.146Z,30.24
2017-08-21T10:54:55.220Z,30.1
2017-08-21T10:57:20.297Z,31.36
2017-08-21T10:59:45.419Z,30.98
2017-08-21T11:02:10.705Z,30.54
2017-08-21T11:04:35.787Z,30.43
2017-08-21T11:06:52.264Z,29.73
2017-08-21T11:09:17.414Z,30.18
2017-08-21T11:11:42.636Z,30.8
2017-08-21T11:14:07.621Z,31.51
2017-08-21T11:16:32.787Z,30.78
2017-08-21T11:18:57.825Z,30.54
2017-08-21T11:21:22.902Z,30.83
2017-08-21T11:23:48.134Z,31.11
2017-08-21T11:26:14.320Z,31.17
2017-08-21T11:28:41.381Z,28.93
2017-08-21T11:31:07.518Z,30.18
2017-08-21T11:33:33.742Z,30.83
2017-08-21T11:35:58.996Z,30.8
2017-08-21T11:38:24.009Z,30.76
2017-08-21T11:40:50.154Z,29.1
2017-08-21T11:43:15.287Z,28.68
2017-08-21T11:45:40.361Z,28.8
2017-08-21T11:48:05.463Z,29.47
2017-08-21T11:50:30.491Z,29.83
2017-08-21T11:52:55.471Z,29.35
2017-08-21T11:55:20.371Z,29.03
2017-08-21T11:57:45.372Z,28.93
2017-08-21T12:00:10.200Z,28.74
2017-08-21T12:02:35.266Z,28.71
2017-08-21T12:05:00.056Z,28.93
2017-08-21T12:07:24.904Z,28.62
2017-08-21T12:09:49.819Z,29.05
2017-08-21T12:12:17.720Z,29.31
2017-08-21T12:14:52.723Z,29.74
2017-08-21T12:17:17.638Z,28.77
2017-08-21T12:19:42.634Z,30.29
2017-08-21T12:22:07.559Z,30.26
2017-08-21T12:24:32.452Z,30.52
2017-08-21T12:26:57.542Z,29.37
2017-08-21T12:29:22.369Z,29.76
2017-08-21T12:31:47.872Z,29.64
2017-08-21T12:34:12.909Z,29.99
2017-08-21T12:36:38.239Z,28.87
2017-08-21T12:39:03.448Z,29.03
2017-08-21T12:41:28.352Z,30.1
2017-08-21T12:43:53.405Z,30.11
2017-08-21T12:46:18.590Z,29.42
2017-08-21T12:48:43.254Z,29.79
2017-08-21T12:51:08.147Z,29.06
2017-08-21T12:53:33.039Z,29.37
2017-08-21T12:55:58.054Z,29.49
2017-08-21T12:58:25.007Z,29.31
2017-08-21T13:00:50.013Z,29.55
2017-08-21T13:03:14.915Z,29.32
2017-08-21T13:05:39.806Z,29.53
2017-08-21T13:08:04.665Z,29.3
2017-08-21T13:10:29.426Z,29.79
2017-08-21T13:12:54.337Z,30.02
2017-08-21T13:15:19.115Z,28.57
2017-08-21T13:16:55.001Z,29.16
2017-08-21T13:19:19.807Z,28.43
2017-08-21T13:21:22.989Z,28.65
2017-08-21T13:23:47.950Z,29.15
2017-08-21T13:26:04.359Z,27.41
2017-08-21T13:28:20.754Z,27.66
2017-08-21T13:30:22.323Z,27.45
2017-08-21T13:32:32.485Z,27.88
2017-08-21T13:34:57.367Z,27.61
2017-08-21T13:37:22.163Z,26.88
2017-08-21T13:39:46.960Z,26.82
2017-08-21T13:42:03.334Z,27.13
2017-08-21T13:44:28.100Z,27.93
2017-08-21T13:46:52.888Z,27.41
2017-08-21T13:49:17.981Z,27.29
2017-08-21T13:51:42.715Z,27.76
2017-08-21T13:54:07.465Z,27.41
2017-08-21T13:56:32.617Z,27.75
2017-08-21T13:59:02.738Z,27.81
2017-08-21T14:01:25.136Z,27.64
2017-08-21T14:03:53.959Z,26.96
2017-08-21T14:06:19.043Z,28.3
2017-08-21T14:08:02.889Z,27.78
2017-08-21T14:10:28.778Z,27.11
2017-08-21T14:12:55.085Z,28.04
2017-08-21T14:15:21.933Z,27.79
2017-08-21T14:17:50.006Z,27.76
2017-08-21T14:20:15.863Z,28.77
2017-08-21T14:22:40.685Z,28.75
2017-08-21T14:25:05.938Z,28.92
2017-08-21T14:27:31.980Z,27.75
2017-08-21T14:29:57.078Z,28
2017-08-21T14:32:22.998Z,28.35
2017-08-21T14:34:48.842Z,28.41
2017-08-21T14:37:13.825Z,28.55
2017-08-21T14:39:45.307Z,28.37
2017-08-21T14:41:47.586Z,28.1
2017-08-21T14:44:12.249Z,27.47
2017-08-21T14:46:14.457Z,26.89
2017-08-21T14:48:39.336Z,26.73
2017-08-21T14:51:04.225Z,27.11
2017-08-21T14:53:29.261Z,26.98
2017-08-21T14:55:54.275Z,26.06
2017-08-21T14:58:19.894Z,26.55
2017-08-21T15:00:48.123Z,26.29
2017-08-21T15:03:14.091Z,26.71
2017-08-21T15:05:41.395Z,27.25
2017-08-21T15:08:10.054Z,26.97
2017-08-21T15:10:38.334Z,27.5
2017-08-21T15:13:03.133Z,26.59
2017-08-21T15:15:27.955Z,26.67
2017-08-21T15:17:52.621Z,26.48
2017-08-21T15:20:17.602Z,26.18
2017-08-21T15:22:42.484Z,26.51
2017-08-21T15:24:59.051Z,26.39
2017-08-21T15:27:23.734Z,26.33
2017-08-21T15:29:48.530Z,26.42
2017-08-21T15:32:13.276Z,26.39
2017-08-21T15:34:38.146Z,26.68
2017-08-21T15:37:02.933Z,26.52
2017-08-21T15:39:27.736Z,26.56
2017-08-21T15:41:52.541Z,26.89
2017-08-21T15:44:18.345Z,26.56
2017-08-21T15:46:44.360Z,26.61
2017-08-21T15:49:09.069Z,26.52
2017-08-21T15:51:33.671Z,26.51
2017-08-21T15:53:58.423Z,27.13
2017-08-21T15:56:23.098Z,26.23
2017-08-21T15:58:47.667Z,25.86
2017-08-21T16:00:58.738Z,25.8
2017-08-21T16:03:26.761Z,26.34
2017-08-21T16:05:52.746Z,26.37
2017-08-21T16:08:19.057Z,26.63
2017-08-21T16:10:44.523Z,26.82
2017-08-21T16:13:10.318Z,26.41
2017-08-21T16:15:38.339Z,26.39
2017-08-21T16:18:09.552Z,26.71
2017-08-21T16:20:34.569Z,26.49
2017-08-21T16:22:58.973Z,26.34
2017-08-21T16:25:28.293Z,26.23
2017-08-21T16:27:49.773Z,26.82
2017-08-21T16:30:16.024Z,26.41
2017-08-21T16:32:40.576Z,26.76
2017-08-21T16:35:05.287Z,25.54
2017-08-21T16:37:16.677Z,25.66
2017-08-21T16:39:33.900Z,25.74
2017-08-21T16:41:58.467Z,26.3
2017-08-21T16:44:23.107Z,25.71
2017-08-21T16:46:47.703Z,26.27
2017-08-21T16:49:12.349Z,26.44
2017-08-21T16:51:36.963Z,25.83
2017-08-21T16:54:01.573Z,26.37
2017-08-21T16:56:26.096Z,25.91
2017-08-21T16:58:50.760Z,26.24
2017-08-21T17:01:15.386Z,25.8
2017-08-21T17:03:54.838Z,25.4
2017-08-21T17:06:19.221Z,25.29
2017-08-21T17:08:43.801Z,25.31
2017-08-21T17:11:08.368Z,25.63
2017-08-21T17:13:32.910Z,25.68
2017-08-21T17:15:57.563Z,25.78
2017-08-21T17:18:22.240Z,25.62
2017-08-21T17:20:47.932Z,25.49
2017-08-21T17:23:12.480Z,25.39
2017-08-21T17:25:38.497Z,25.26
2017-08-21T17:28:03.843Z,25.14
2017-08-21T17:30:28.601Z,25.06
2017-08-21T17:32:53.378Z,25.26
2017-08-21T17:35:19.876Z,25.24
2017-08-21T17:37:45.209Z,25.06
2017-08-21T17:40:09.942Z,25.06
2017-08-21T17:42:34.465Z,24.97
2017-08-21T17:44:59.350Z,24.88
2017-08-21T17:47:32.305Z,25.03
2017-08-21T17:49:21.246Z,25.18
2017-08-21T17:51:48.423Z,24.99
2017-08-21T17:54:12.864Z,25.06
2017-08-21T17:56:37.859Z,24.94
2017-08-21T17:59:02.391Z,24.43
2017-08-21T18:01:36.106Z,24.43
2017-08-21T18:04:00.734Z,24.36
2017-08-21T18:06:25.307Z,24.03
2017-08-21T18:08:51.247Z,24.1
2017-08-21T18:11:25.394Z,24.21
2017-08-21T18:13:51.688Z,24.13
2017-08-21T18:16:16.792Z,23.95
2017-08-21T18:22:18.579Z,23.51
2017-08-21T18:24:43.324Z,23.81
2017-08-21T18:27:07.675Z,23.84
2017-08-21T18:29:32.201Z,23.76
2017-08-21T18:31:56.776Z,23.77
2017-08-21T18:34:21.564Z,23.86
2017-08-21T18:36:52.798Z,23.89
2017-08-21T18:39:21.700Z,23.79
2017-08-21T18:43:36.485Z,23.66
2017-08-21T18:46:01.455Z,23.28
2017-08-21T18:48:26.576Z,23.39
2017-08-21T18:50:51.870Z,23.25
2017-08-21T18:53:16.362Z,23.26
2017-08-21T18:55:42.053Z,23.17
2017-08-21T18:58:06.354Z,23.36
2017-08-21T19:00:30.723Z,23.29
2017-08-21T19:02:57.535Z,23.34
2017-08-21T19:05:35.556Z,23.21
2017-08-21T19:07:40.038Z,23.08
2017-08-21T19:10:05.519Z,22.8
2017-08-21T19:14:33.063Z,22.96
2017-08-21T19:26:26.746Z,22.96
2017-08-21T19:28:51.479Z,22.86
2017-08-21T19:31:17.519Z,22.81
2017-08-21T19:33:41.960Z,22.67
2017-08-21T19:36:06.563Z,22.68
2017-08-21T19:38:31.205Z,22.44
2017-08-21T19:40:55.612Z,22.4
2017-08-21T19:43:19.893Z,22.22
2017-08-21T19:45:44.255Z,22
2017-08-21T19:48:08.754Z,21.85
2017-08-21T19:50:39.655Z,21.83
2017-08-21T19:53:04.267Z,21.97
2017-08-21T19:55:28.652Z,22.01
2017-08-21T19:57:52.967Z,22.07
2017-08-21T20:00:17.194Z,22.1
2017-08-21T20:02:41.586Z,22.12
2017-08-21T20:05:05.708Z,22.14
2017-08-21T20:07:29.822Z,22.12
2017-08-21T20:09:54.037Z,22.14
2017-08-21T20:12:18.526Z,22.07
2017-08-21T20:14:44.077Z,21.81
2017-08-21T20:17:08.464Z,21.8
2017-08-21T20:19:32.918Z,21.44
2017-08-21T20:21:57.425Z,21.3
2017-08-21T20:24:21.965Z,21.17
2017-08-21T20:26:46.072Z,21.11
2017-08-21T20:29:10.459Z,21.11
2017-08-21T20:31:35.609Z,20.85
2017-08-21T20:34:00.073Z,20.88
2017-08-21T20:36:24.140Z,21.01
2017-08-21T20:38:50.153Z,20.88
2017-08-21T20:41:14.862Z,20.85
2017-08-21T20:43:40.073Z,20.75
2017-08-21T20:46:05.668Z,20.68
2017-08-21T20:48:29.906Z,20.67
2017-08-21T20:50:05.857Z,20.7
2017-08-21T20:52:30.121Z,20.89
2017-08-21T20:54:54.505Z,20.92
2017-08-21T20:57:18.754Z,20.82
2017-08-21T20:59:43.779Z,20.74
2017-08-21T21:02:07.819Z,20.68
2017-08-21T21:04:32.202Z,20.7
2017-08-21T21:06:56.334Z,20.74
2017-08-21T21:09:20.444Z,20.95
2017-08-21T21:11:44.495Z,20.92
2017-08-21T21:14:08.600Z,21.01
2017-08-21T21:16:32.813Z,20.74
2017-08-21T21:18:57.004Z,20.89
2017-08-21T21:21:21.069Z,21.04
2017-08-21T21:23:45.132Z,20.66
2017-08-21T21:26:09.378Z,20.88
2017-08-21T21:28:33.484Z,20.86
2017-08-21T21:30:57.778Z,20.93
2017-08-21T21:33:22.087Z,20.39
2017-08-21T21:35:25.876Z,20.67
2017-08-21T21:37:50.153Z,20.89
2017-08-21T21:40:14.365Z,21.08
2017-08-21T21:42:38.512Z,20.98
2017-08-21T21:45:02.953Z,20.73
2017-08-21T21:47:26.959Z,20.86
2017-08-21T21:49:51.173Z,20.96
2017-08-21T21:52:15.228Z,20.86
2017-08-21T21:54:39.340Z,20.74
2017-08-21T21:57:04.443Z,20.77
2017-08-21T21:59:28.625Z,20.53
2017-08-21T22:01:52.710Z,20.7
2017-08-21T22:04:16.787Z,20.63
2017-08-21T22:05:53.098Z,20.7
2017-08-21T22:08:08.738Z,20.73
2017-08-21T22:10:32.825Z,20.67
2017-08-21T22:12:56.904Z,20.48
2017-08-21T22:15:20.978Z,20.53
2017-08-21T22:17:45.003Z,20.52
2017-08-21T22:20:09.154Z,20.33
2017-08-21T22:22:33.085Z,20.29
2017-08-21T22:24:48.636Z,20.19
2017-08-21T22:27:04.299Z,20.19
2017-08-21T22:29:28.270Z,20.21
2017-08-21T22:31:52.252Z,19.99
2017-08-21T22:33:28.578Z,20.12
2017-08-21T22:35:52.590Z,19.9
2017-08-21T22:38:08.174Z,20
2017-08-21T22:40:10.033Z,20.07
2017-08-21T22:42:34.119Z,19.99
2017-08-21T22:44:58.068Z,19.82
2017-08-21T22:47:22.078Z,19.89
2017-08-21T22:49:46.022Z,20
2017-08-21T22:52:10.034Z,19.92
2017-08-21T22:54:34.014Z,20.1
2017-08-21T22:56:43.926Z,19.93
2017-08-21T22:58:20.202Z,20.03
2017-08-21T23:00:44.205Z,20.1
2017-08-21T23:02:46.139Z,19.99
2017-08-21T23:05:10.147Z,20
2017-08-21T23:07:34.140Z,19.85
2017-08-21T23:09:58.061Z,19.79
2017-08-21T23:12:22.081Z,19.78
2017-08-21T23:14:46.065Z,19.75
2017-08-21T23:17:10.044Z,19.9
2017-08-21T23:19:34.027Z,19.55
2017-08-21T23:21:10.342Z,19.66
2017-08-21T23:23:34.363Z,19.72
2017-08-21T23:25:44.716Z,19.71
2017-08-21T23:27:46.596Z,19.75
2017-08-21T23:30:10.572Z,19.67
2017-08-21T23:32:26.145Z,19.66
2017-08-21T23:34:50.119Z,19.48
2017-08-21T23:37:14.100Z,19.39
2017-08-21T23:39:15.936Z,19.44
2017-08-21T23:41:39.956Z,19.32
2017-08-21T23:44:03.930Z,19.55
2017-08-21T23:46:19.516Z,19.07
2017-08-21T23:48:21.369Z,19.22
2017-08-21T23:50:45.353Z,18.91
2017-08-21T23:53:09.217Z,19.2
2017-08-21T23:55:33.201Z,19.07
2017-08-21T23:57:57.062Z,18.81
